createdAt,value
2022-10-29T00:02:24.771Z,100458.08
2022-10-29T00:04:53.747Z,100460.27
2022-10-29T00:07:22.710Z,100462.83
2022-10-29T00:09:51.989Z,100469.95
2022-10-29T00:12:21.155Z,100471.67
2022-10-29T00:14:50.088Z,100474.13
2022-10-29T00:17:19.066Z,100470.05
2022-10-29T00:19:48.016Z,100474.67
2022-10-29T00:22:17.124Z,100473.45
2022-10-29T00:24:45.407Z,100471.23
2022-10-29T00:27:14.789Z,100467.38
2022-10-29T00:29:43.782Z,100472.07
2022-10-29T00:32:12.830Z,100470.55
2022-10-29T00:34:41.802Z,100465.70
2022-10-29T00:37:10.625Z,100459.24
2022-10-29T00:39:57.384Z,100461.95
2022-10-29T00:42:44.058Z,100476.10
2022-10-29T00:45:30.535Z,100474.42
2022-10-29T00:47:59.699Z,100470.31
2022-10-29T00:50:28.657Z,100469.21
2022-10-29T00:53:16.754Z,100471.98
2022-10-29T00:55:46.383Z,100470.84
2022-10-29T00:58:15.550Z,100465.89
2022-10-29T05:00:48.634Z,100354.66
2022-10-29T05:03:17.742Z,100359.10
2022-10-29T05:05:46.147Z,100361.89
2022-10-29T05:08:15.846Z,100369.11
2022-10-29T05:10:44.471Z,100372.61
2022-10-29T05:13:13.206Z,100361.52
2022-10-29T05:15:41.947Z,100359.72
2022-10-29T05:18:28.090Z,100359.94
2022-10-29T05:20:58.764Z,100360.30
2022-10-29T05:23:27.060Z,100374.61
2022-10-29T05:25:56.124Z,100384.41
2022-10-29T05:28:24.461Z,100388.63
2022-10-29T05:31:10.101Z,100385.94
2022-10-29T05:33:38.954Z,100383.48
2022-10-29T05:36:08.474Z,100377.93
2022-10-29T05:38:55.010Z,100385.88
2022-10-29T05:41:23.712Z,100390.01
2022-10-29T05:44:10.535Z,100388.95
2022-10-29T05:46:40.099Z,100377.70
2022-10-29T05:49:09.043Z,100372.30
2022-10-29T05:51:55.541Z,100378.73
2022-10-29T05:54:41.602Z,100385.92
2022-10-29T05:57:10.216Z,100377.42
2022-10-29T05:59:39.075Z,100380.59
2022-10-29T06:02:09.766Z,100376.05
2022-10-29T06:04:38.933Z,100377.29
2022-10-29T06:07:25.064Z,100384.08
2022-10-29T06:10:11.668Z,100381.27
2022-10-29T06:12:39.877Z,100379.47
2022-10-29T06:15:08.992Z,100382.48
2022-10-29T06:17:42.951Z,100378.80
2022-10-29T06:20:12.321Z,100376.67
2022-10-29T06:22:40.607Z,100378.27
2022-10-29T06:25:10.560Z,100377.20
2022-10-29T06:27:39.952Z,100381.42
2022-10-29T06:30:09.991Z,100389.25
2022-10-29T06:32:38.617Z,100390.25
2022-10-29T06:35:24.923Z,100381.41
2022-10-29T06:37:53.871Z,100378.64
2022-10-29T06:40:22.579Z,100379.62
2022-10-29T06:43:10.768Z,100385.88
2022-10-29T06:45:56.453Z,100389.02
2022-10-29T06:48:24.828Z,100388.34
2022-10-29T06:51:10.494Z,100386.96
2022-10-29T06:53:39.612Z,100386.02
2022-10-29T06:56:08.420Z,100387.16
2022-10-29T06:58:37.233Z,100396.11
2022-10-29T07:01:06.116Z,100398.00
2022-10-29T07:03:34.782Z,100401.33
2022-10-29T07:06:03.156Z,100404.38
2022-10-29T07:08:33.445Z,100408.71
2022-10-29T07:11:03.470Z,100415.34
2022-10-29T07:13:31.742Z,100421.34
2022-10-29T07:15:59.998Z,100422.42
2022-10-29T07:18:45.918Z,100431.39
2022-10-29T07:21:32.080Z,100437.41
2022-10-29T07:24:00.701Z,100439.30
2022-10-29T07:26:46.989Z,100443.92
2022-10-29T07:29:33.463Z,100450.83
2022-10-29T07:32:02.326Z,100448.54
2022-10-29T07:34:48.813Z,100445.31
2022-10-29T07:37:17.690Z,100444.86
2022-10-29T07:40:04.231Z,100437.27
2022-10-29T07:42:52.231Z,100433.34
2022-10-29T07:45:21.187Z,100435.64
2022-10-29T07:47:50.180Z,100433.35
2022-10-29T07:50:18.595Z,100435.09
2022-10-29T07:52:48.483Z,100429.37
2022-10-29T07:55:34.871Z,100434.05
2022-10-29T07:58:05.064Z,100438.84
2022-10-29T08:00:34.568Z,100437.46
2022-10-29T08:03:04.074Z,100432.84
2022-10-29T08:05:56.210Z,100425.42
2022-10-29T08:08:25.646Z,100420.34
2022-10-29T08:11:02.013Z,100418.15
2022-10-29T08:13:32.957Z,100416.20
2022-10-29T08:16:19.627Z,100425.35
2022-10-29T08:18:47.981Z,100426.36
2022-10-29T08:21:16.408Z,100428.75
2022-10-29T08:23:45.768Z,100427.50
2022-10-29T08:26:14.401Z,100426.62
2022-10-29T08:28:45.997Z,100420.23
2022-10-29T08:31:15.289Z,100420.85
2022-10-29T08:33:43.847Z,100425.73
2022-10-29T08:36:30.355Z,100422.71
2022-10-29T08:38:58.955Z,100431.47
2022-10-29T08:41:27.760Z,100426.98
2022-10-29T08:44:04.415Z,100438.16
2022-10-29T08:46:36.053Z,100438.95
2022-10-29T08:49:28.089Z,100438.71
2022-10-29T08:52:10.834Z,100433.95
2022-10-29T08:54:42.088Z,100441.34
2022-10-29T08:57:18.477Z,100441.96
2022-10-29T08:59:59.510Z,100448.48
2022-10-29T09:02:31.385Z,100446.77
2022-10-29T09:05:02.573Z,100451.18
2022-10-29T09:07:38.585Z,100454.11
2022-10-29T09:10:34.529Z,100458.44
2022-10-29T09:13:26.899Z,100459.73
2022-10-29T09:16:05.635Z,100465.90
2022-10-29T09:18:51.934Z,100471.02
2022-10-29T09:21:44.782Z,100471.77
2022-10-29T09:24:16.759Z,100477.90
2022-10-29T09:26:58.912Z,100481.58
2022-10-29T09:29:34.733Z,100479.66
2022-10-29T09:32:24.955Z,100485.91
2022-10-29T09:34:57.780Z,100494.70
2022-10-29T09:37:29.313Z,100499.01
2022-10-29T09:40:00.059Z,100497.42
2022-10-29T09:42:48.624Z,100496.93
2022-10-29T09:45:19.447Z,100494.10
2022-10-29T09:48:07.458Z,100491.77
2022-10-29T09:50:56.678Z,100481.98
2022-10-29T09:53:25.229Z,100476.73
2022-10-29T09:55:54.250Z,100485.98
2022-10-29T09:58:28.189Z,100489.55
2022-10-29T10:00:57.701Z,100491.89
2022-10-29T10:03:31.461Z,100486.61
2022-10-29T10:06:04.847Z,100478.52
2022-10-29T10:08:34.869Z,100481.59
2022-10-29T10:11:21.767Z,100486.95
2022-10-29T10:13:52.453Z,100488.91
2022-10-29T10:16:25.507Z,100488.94
2022-10-29T10:18:53.857Z,100492.69
2022-10-29T10:21:39.964Z,100483.52
2022-10-29T10:24:27.172Z,100481.25
2022-10-29T10:26:56.276Z,100482.27
2022-10-29T10:29:28.094Z,100483.52
2022-10-29T10:31:57.643Z,100482.61
2022-10-29T10:34:27.550Z,100481.10
2022-10-29T10:37:02.693Z,100480.86
2022-10-29T10:39:54.275Z,100485.31
2022-10-29T10:42:24.446Z,100488.96
2022-10-29T10:45:03.488Z,100497.53
2022-10-29T10:47:34.338Z,100503.31
2022-10-29T10:50:31.084Z,100501.31
2022-10-29T10:53:01.596Z,100495.16
2022-10-29T10:55:39.854Z,100491.90
2022-10-29T10:58:14.106Z,100496.95
2022-10-29T11:00:46.009Z,100501.73
2022-10-29T11:03:14.713Z,100494.09
2022-10-29T11:06:01.555Z,100494.35
2022-10-29T11:08:44.244Z,100507.70
2022-10-29T11:11:17.877Z,100508.45
2022-10-29T11:13:46.518Z,100506.65
2022-10-29T11:16:39.038Z,100504.59
2022-10-29T11:19:25.230Z,100500.48
2022-10-29T11:22:02.406Z,100499.24
2022-10-29T11:24:35.861Z,100502.08
2022-10-29T11:27:14.190Z,100494.10
2022-10-29T11:30:02.153Z,100492.84
2022-10-29T11:32:38.156Z,100492.04
2022-10-29T11:35:12.634Z,100491.84
2022-10-29T11:37:56.970Z,100495.95
2022-10-29T11:40:45.950Z,100497.05
2022-10-29T11:43:17.125Z,100497.08
2022-10-29T11:45:46.678Z,100497.41
2022-10-29T11:48:34.751Z,100507.65
2022-10-29T11:51:20.187Z,100512.23
2022-10-29T11:53:58.197Z,100514.15
2022-10-29T11:56:33.884Z,100511.66
2022-10-29T11:59:20.235Z,100512.14
2022-10-29T12:01:56.891Z,100510.55
2022-10-29T12:04:51.748Z,100503.80
2022-10-29T12:07:53.021Z,100495.69
2022-10-29T12:10:37.483Z,100486.05
2022-10-29T12:13:24.941Z,100487.73
2022-10-29T12:16:13.672Z,100490.54
2022-10-29T12:19:02.714Z,100492.67
2022-10-29T12:22:15.368Z,100491.46
2022-10-29T12:25:15.745Z,100491.45
2022-10-29T12:27:45.068Z,100498.40
2022-10-29T12:30:16.769Z,100502.23
2022-10-29T12:32:48.947Z,100507.57
2022-10-29T12:35:34.055Z,100507.88
2022-10-29T12:38:12.206Z,100506.08
2022-10-29T12:40:44.061Z,100506.68
2022-10-29T12:43:33.225Z,100502.17
2022-10-29T12:46:22.488Z,100501.57
2022-10-29T12:49:15.870Z,100499.45
2022-10-29T12:52:04.662Z,100502.75
2022-10-29T12:54:39.279Z,100501.57
2022-10-29T12:57:14.476Z,100500.32
2022-10-29T12:59:44.465Z,100500.40
2022-10-29T13:02:20.136Z,100496.20
2022-10-29T13:05:12.496Z,100496.48
2022-10-29T13:07:59.305Z,100494.45
2022-10-29T13:10:50.701Z,100501.77
2022-10-29T13:13:21.440Z,100505.77
2022-10-29T13:15:58.860Z,100502.98
2022-10-29T13:18:37.578Z,100500.71
2022-10-29T13:21:09.066Z,100500.61
2022-10-29T13:23:38.476Z,100501.29
2022-10-29T13:26:08.744Z,100503.89
2022-10-29T13:28:37.727Z,100505.84
2022-10-29T13:31:24.558Z,100515.13
2022-10-29T13:33:53.400Z,100518.72
2022-10-29T13:36:22.565Z,100517.42
2022-10-29T13:39:05.279Z,100520.02
2022-10-29T13:41:43.734Z,100518.63
2022-10-29T13:44:13.430Z,100511.80
2022-10-29T13:46:46.589Z,100503.98
2022-10-29T13:49:33.996Z,100504.34
2022-10-29T13:52:11.095Z,100506.77
2022-10-29T13:54:43.096Z,100508.11
2022-10-29T13:57:52.338Z,100511.42
2022-10-29T14:00:21.335Z,100514.27
2022-10-29T14:03:16.781Z,100518.48
2022-10-29T14:05:47.784Z,100518.09
2022-10-29T14:08:19.827Z,100517.73
2022-10-29T14:10:51.553Z,100519.23
2022-10-29T14:13:23.635Z,100521.91
2022-10-29T14:16:06.396Z,100519.36
2022-10-29T14:18:41.122Z,100518.39
2022-10-29T14:21:15.190Z,100513.98
2022-10-29T14:24:03.226Z,100516.52
2022-10-29T14:26:36.148Z,100517.74
2022-10-29T14:29:15.686Z,100514.38
2022-10-29T14:31:44.435Z,100517.67
2022-10-29T14:34:24.212Z,100520.73
2022-10-29T14:36:57.153Z,100521.09
2022-10-29T14:39:32.659Z,100527.50
2022-10-29T14:44:53.703Z,100538.27
2022-10-29T14:47:28.970Z,100533.94
2022-10-29T14:50:03.255Z,100538.33
2022-10-29T14:53:01.693Z,100536.78
2022-10-29T14:55:35.596Z,100538.36
2022-10-29T14:58:10.299Z,100539.40
2022-10-29T15:00:40.086Z,100539.27
2022-10-29T15:03:09.142Z,100540.44
2022-10-29T15:05:38.501Z,100542.81
2022-10-29T15:08:19.446Z,100547.61
2022-10-29T15:11:01.717Z,100550.36
2022-10-29T15:13:32.767Z,100546.96
2022-10-29T15:16:21.082Z,100543.38
2022-10-29T15:18:52.773Z,100551.58
2022-10-29T15:21:25.133Z,100546.59
2022-10-29T15:23:56.708Z,100545.84
2022-10-29T15:27:09.687Z,100545.64
2022-10-29T15:29:43.202Z,100549.29
2022-10-29T15:32:14.979Z,100545.67
2022-10-29T15:35:01.257Z,100548.70
2022-10-29T15:37:47.621Z,100553.39
2022-10-29T15:40:18.044Z,100549.22
2022-10-29T15:42:47.585Z,100555.05
2022-10-29T15:45:19.635Z,100550.39
2022-10-29T15:47:49.958Z,100551.56
2022-10-29T15:50:25.156Z,100553.65
2022-10-29T15:52:58.194Z,100552.32
2022-10-29T15:55:32.942Z,100554.24
2022-10-29T15:58:07.488Z,100550.48
2022-10-29T16:00:36.944Z,100536.32
2022-10-29T16:03:25.116Z,100534.48
2022-10-29T16:06:00.312Z,100536.95
2022-10-29T16:08:30.388Z,100532.44
2022-10-29T16:11:00.387Z,100535.81
2022-10-29T16:13:30.931Z,100543.93
2022-10-29T16:16:00.734Z,100550.45
2022-10-29T16:18:29.816Z,100548.09
2022-10-29T16:20:59.708Z,100554.92
2022-10-29T16:23:28.918Z,100555.65
2022-10-29T16:25:57.596Z,100553.98
2022-10-29T16:28:26.501Z,100551.23
2022-10-29T16:30:56.702Z,100552.73
2022-10-29T16:33:26.113Z,100549.75
2022-10-29T16:35:55.255Z,100550.70
2022-10-29T16:38:24.579Z,100552.09
2022-10-29T16:40:54.272Z,100557.96
2022-10-29T16:43:22.940Z,100559.04
2022-10-29T16:48:25.244Z,100554.72
2022-10-29T16:50:54.256Z,100552.63
2022-10-29T16:53:23.159Z,100555.16
2022-10-29T16:55:52.471Z,100558.27
2022-10-29T16:58:38.596Z,100566.16
2022-10-29T17:01:08.746Z,100566.06
2022-10-29T17:03:54.483Z,100570.02
2022-10-29T17:06:23.322Z,100571.06
2022-10-29T17:08:51.866Z,100576.21
2022-10-29T17:11:20.321Z,100577.20
2022-10-29T17:13:49.328Z,100574.52
2022-10-29T17:16:19.279Z,100573.45
2022-10-29T17:19:05.494Z,100576.21
2022-10-29T17:21:51.912Z,100574.48
2022-10-29T17:24:20.646Z,100574.21
2022-10-29T17:27:07.369Z,100575.04
2022-10-29T17:29:53.679Z,100572.33
2022-10-29T17:32:23.171Z,100568.56
2022-10-29T17:35:09.936Z,100571.35
2022-10-29T17:37:39.094Z,100570.05
2022-10-29T17:40:08.632Z,100568.26
2022-10-29T17:42:37.437Z,100565.73
2022-10-29T17:45:06.837Z,100562.90
2022-10-29T17:47:35.754Z,100565.29
2022-10-29T17:50:04.790Z,100569.21
2022-10-29T17:52:33.840Z,100575.27
2022-10-29T17:55:02.774Z,100573.61
2022-10-29T17:57:31.881Z,100573.06
2022-10-29T18:00:18.068Z,100579.10
2022-10-29T18:02:49.721Z,100579.67
2022-10-29T18:05:36.604Z,100584.59
2022-10-29T18:08:06.006Z,100588.72
2022-10-29T18:10:35.421Z,100590.60
2022-10-29T18:13:03.563Z,100588.95
2022-10-29T18:15:32.572Z,100596.13
2022-10-29T18:18:01.629Z,100602.80
2022-10-29T18:20:29.919Z,100601.92
2022-10-29T18:22:58.474Z,100604.86
2022-10-29T18:25:27.434Z,100602.14
2022-10-29T18:27:56.853Z,100596.06
2022-10-29T18:30:25.476Z,100596.41
2022-10-29T18:32:54.058Z,100603.81
2022-10-29T18:35:22.526Z,100607.25
2022-10-29T18:37:51.043Z,100607.98
2022-10-29T18:40:19.399Z,100607.18
2022-10-29T18:43:05.557Z,100608.41
2022-10-29T18:45:58.973Z,100605.64
2022-10-29T18:48:47.175Z,100605.27
2022-10-29T18:51:25.891Z,100606.19
2022-10-29T18:53:54.975Z,100609.02
2022-10-29T18:56:23.550Z,100613.65
2022-10-29T18:58:51.975Z,100614.50
2022-10-29T19:01:38.139Z,100610.15
2022-10-29T19:04:11.389Z,100614.77
2022-10-29T19:06:39.789Z,100616.15
2022-10-29T19:09:08.772Z,100612.27
2022-10-29T19:11:37.646Z,100611.25
2022-10-29T19:14:07.511Z,100606.89
2022-10-29T19:16:35.931Z,100612.23
2022-10-29T19:19:23.935Z,100615.14
2022-10-29T19:21:52.797Z,100611.30
2022-10-29T19:24:38.982Z,100601.10
2022-10-29T19:27:07.108Z,100596.14
2022-10-29T19:29:52.986Z,100601.64
2022-10-29T19:32:21.104Z,100613.21
2022-10-29T19:34:49.810Z,100616.60
2022-10-29T19:37:18.933Z,100614.92
2022-10-29T19:39:47.631Z,100600.91
2022-10-29T19:42:16.974Z,100595.77
2022-10-29T19:45:03.442Z,100597.48
2022-10-29T19:47:31.883Z,100596.44
2022-10-29T19:50:18.625Z,100604.38
2022-10-29T19:52:47.379Z,100605.66
2022-10-29T19:55:16.738Z,100601.57
2022-10-29T19:57:45.336Z,100597.05
2022-10-29T20:00:31.204Z,100598.63
2022-10-29T20:02:59.816Z,100593.55
2022-10-29T20:05:31.901Z,100589.35
2022-10-29T20:08:01.015Z,100573.20
2022-10-29T20:10:30.008Z,100571.19
2022-10-29T20:12:58.857Z,100582.62
2022-10-29T20:15:45.116Z,100586.17
2022-10-29T20:18:13.701Z,100589.13
2022-10-29T20:20:43.005Z,100591.86
2022-10-29T20:23:11.968Z,100590.52
2022-10-29T20:25:40.570Z,100591.13
2022-10-29T20:28:26.777Z,100587.01
2022-10-29T20:31:32.944Z,100592.97
2022-10-29T20:34:03.438Z,100597.52
2022-10-29T20:36:33.126Z,100604.89
2022-10-29T20:39:20.684Z,100608.92
2022-10-29T20:41:49.663Z,100602.67
2022-10-29T20:44:18.485Z,100604.67
2022-10-29T20:47:04.313Z,100606.73
2022-10-29T20:49:33.114Z,100599.25
2022-10-29T20:52:01.481Z,100591.44
2022-10-29T20:54:29.942Z,100588.86
2022-10-29T20:56:58.303Z,100584.71
2022-10-29T20:59:26.752Z,100590.23
2022-10-29T21:01:55.364Z,100586.10
2022-10-29T21:04:41.554Z,100599.63
2022-10-29T21:07:10.116Z,100597.38
2022-10-29T21:09:38.432Z,100591.77
2022-10-29T21:12:07.442Z,100589.08
2022-10-29T21:14:35.979Z,100586.02
2022-10-29T21:17:04.360Z,100581.68
2022-10-29T21:19:33.633Z,100577.34
2022-10-29T21:22:01.797Z,100575.90
2022-10-29T21:24:30.196Z,100581.45
2022-10-29T21:26:58.722Z,100585.84
2022-10-29T21:29:27.237Z,100584.67
2022-10-29T21:31:55.673Z,100586.00
2022-10-29T21:34:24.077Z,100594.70
2022-10-29T21:36:52.534Z,100596.64
2022-10-29T21:39:20.972Z,100593.80
2022-10-29T21:41:49.913Z,100584.80
2022-10-29T21:44:18.810Z,100580.71
2022-10-29T21:46:47.049Z,100592.30
2022-10-29T21:49:15.298Z,100593.67
2022-10-29T21:52:02.271Z,100593.66
2022-10-29T21:54:48.037Z,100598.02
2022-10-29T21:57:17.005Z,100598.40
2022-10-29T21:59:45.868Z,100595.77
2022-10-29T22:02:32.615Z,100591.27
2022-10-29T22:05:01.303Z,100591.15
2022-10-29T22:07:30.085Z,100597.09
2022-10-29T22:09:59.270Z,100599.16
2022-10-29T22:15:14.585Z,100609.07
2022-10-29T22:17:43.492Z,100606.37
2022-10-29T22:20:13.027Z,100601.52
2022-10-29T22:22:41.791Z,100594.98
2022-10-29T22:25:10.855Z,100587.38
2022-10-29T22:27:39.876Z,100582.99
2022-10-29T22:30:09.413Z,100581.24
2022-10-29T22:32:37.782Z,100578.16
2022-10-29T22:35:06.959Z,100584.69
2022-10-29T22:37:35.981Z,100591.86
2022-10-29T22:40:05.030Z,100586.39
2022-10-29T22:42:34.074Z,100575.27
2022-10-29T22:45:02.771Z,100572.25
2022-10-29T22:47:31.697Z,100575.58
2022-10-29T22:50:01.488Z,100572.21
2022-10-29T22:52:30.621Z,100574.97
2022-10-29T22:54:59.694Z,100582.00
2022-10-29T22:57:46.425Z,100585.08
2022-10-29T23:00:32.622Z,100594.52
2022-10-29T23:03:01.598Z,100596.14
2022-10-29T23:05:56.714Z,100600.34
2022-10-29T23:08:25.795Z,100596.09
2022-10-29T23:11:19.899Z,100574.24
2022-10-29T23:14:06.644Z,100571.52
2022-10-29T23:16:35.933Z,100569.97
2022-10-29T23:19:05.861Z,100566.21
2022-10-29T23:21:52.328Z,100567.55
2022-10-29T23:24:21.329Z,100572.63
2022-10-29T23:26:50.315Z,100571.95
2022-10-29T23:29:37.030Z,100568.29
2022-10-29T23:32:06.198Z,100574.31
2022-10-29T23:34:35.313Z,100576.18
2022-10-29T23:37:05.725Z,100570.52
2022-10-29T23:39:55.489Z,100562.69
2022-10-29T23:42:42.333Z,100563.40
2022-10-29T23:45:28.066Z,100564.55
2022-10-29T23:47:57.104Z,100570.10
2022-10-29T23:50:26.130Z,100572.71
2022-10-29T23:52:55.183Z,100570.80
2022-10-29T23:55:45.402Z,100575.43
2022-10-29T23:58:14.805Z,100580.09
